Time;durP1;ratioP1;P1;durP2;ratioP2;P2;SDS_P1;SDS_P2;PMS_P1;PMS_P2;Temp;Humidity;BMP_temperature;BMP_pressure;BME280_temperature;BME280_humidity;BME280_pressure;Samples;Min_cycle;Max_cycle;Signal;HPM_P1;HPM_P2
2021/07/13 00:00:50;;;;;;;;;9.25;8.25;;;;;18.90;71.61;100734.59;5060135;28;61388;-62
2021/07/13 00:03:15;;;;;;;;;7.75;6.25;;;;;18.87;71.83;100736.59;5060032;28;65917;-62
2021/07/13 00:05:41;;;;;;;;;8.50;8.50;;;;;18.88;71.78;100733.84;5057896;28;46252;-62
2021/07/13 00:08:06;;;;;;;;;9.50;8.50;;;;;18.90;71.45;100744.28;5060162;28;65506;-61
2021/07/13 00:10:34;;;;;;;;;9.25;8.50;;;;;18.94;71.52;100738.72;5059677;28;45416;-61
2021/07/13 00:13:00;;;;;;;;;9.00;9.00;;;;;19.02;71.13;100735.59;5060137;28;45566;-61
2021/07/13 00:15:27;;;;;;;;;10.50;9.75;;;;;19.08;70.86;100722.91;5060769;28;45324;-62
2021/07/13 00:17:54;;;;;;;;;10.00;8.50;;;;;19.12;71.19;100715.66;5060811;28;45597;-62
2021/07/13 00:20:19;;;;;;;;;10.50;8.50;;;;;19.09;70.92;100729.88;5041130;28;45344;-61
2021/07/13 00:22:45;;;;;;;;;9.50;9.50;;;;;19.05;71.46;100717.00;5054448;28;45514;-61
2021/07/13 00:25:11;;;;;;;;;12.00;10.25;;;;;19.06;71.35;100711.66;5053622;28;45379;-62
2021/07/13 00:27:36;;;;;;;;;9.00;9.00;;;;;19.06;70.99;100709.00;5046857;28;45309;-62
2021/07/13 00:30:03;;;;;;;;;11.00;10.50;;;;;19.06;70.68;100719.53;5060127;28;53897;-61
2021/07/13 00:32:28;;;;;;;;;12.00;11.50;;;;;19.07;71.13;100729.13;5060434;28;45264;-62
2021/07/13 00:34:54;;;;;;;;;15.00;13.00;;;;;19.07;71.32;100726.50;5038962;28;51840;-62
2021/07/13 00:37:19;;;;;;;;;13.25;11.75;;;;;19.04;70.79;100724.06;5060282;28;57675;-62
2021/07/13 00:39:44;;;;;;;;;12.50;12.50;;;;;19.04;70.97;100721.44;5051307;28;57567;-62
2021/07/13 00:42:16;;;;;;;;;15.25;14.25;;;;;18.98;71.40;100716.53;5059626;28;59713;-62
2021/07/13 00:44:42;;;;;;;;;16.00;13.25;;;;;18.90;70.65;100700.38;5059185;28;46679;-62
2021/07/13 00:47:08;;;;;;;;;18.50;15.50;;;;;18.89;71.20;100692.56;5060299;28;45430;-62
2021/07/13 00:49:34;;;;;;;;;18.25;14.00;;;;;18.85;71.50;100691.94;5059073;28;45546;-62
2021/07/13 00:51:59;;;;;;;;;16.00;15.75;;;;;18.80;71.33;100676.38;5060414;28;45443;-62
2021/07/13 00:54:25;;;;;;;;;13.50;12.75;;;;;18.77;71.10;100678.38;5059273;28;66564;-62
2021/07/13 00:56:51;;;;;;;;;18.75;16.25;;;;;18.76;70.64;100676.69;5038469;28;45281;-62
2021/07/13 00:59:16;;;;;;;;;18.25;16.00;;;;;18.75;71.05;100681.09;5044805;28;45390;-62
2021/07/13 01:01:41;;;;;;;;;21.75;19.00;;;;;18.70;71.54;100683.19;5057597;28;67908;-62
2021/07/13 01:04:07;;;;;;;;;17.75;17.25;;;;;18.69;71.93;100691.19;5055495;28;64833;-62
2021/07/13 01:06:58;;;;;;;;;20.75;17.50;;;;;18.69;71.71;100694.66;5059730;28;45430;-62
2021/07/13 01:09:46;;;;;;;;;20.25;18.25;;;;;18.68;72.06;100692.97;5056692;28;45380;-63
2021/07/13 01:12:16;;;;;;;;;20.50;20.50;;;;;18.66;72.18;100686.13;5051357;28;45536;-64
2021/07/13 01:14:47;;;;;;;;;21.50;17.00;;;;;18.66;71.56;100676.44;5038817;28;46601;-63
2021/07/13 01:17:16;;;;;;;;;25.25;22.25;;;;;18.63;71.67;100679.25;5033914;28;45708;-63
2021/07/13 01:20:06;;;;;;;;;23.75;19.00;;;;;18.66;71.71;100668.53;5060197;28;45354;-63
2021/07/13 01:22:43;;;;;;;;;19.75;18.00;;;;;18.70;71.13;100677.06;5038274;28;45281;-64
2021/07/13 01:25:12;;;;;;;;;25.75;21.25;;;;;18.73;71.65;100687.41;5054227;28;45742;-63
2021/07/13 01:27:49;;;;;;;;;27.25;19.75;;;;;18.73;71.54;100680.34;5059516;28;45726;-63
2021/07/13 01:30:19;;;;;;;;;24.75;22.50;;;;;18.75;70.91;100683.75;5059745;28;45241;-64
2021/07/13 01:32:47;;;;;;;;;22.25;21.00;;;;;18.78;70.52;100673.00;5038244;28;45337;-62
2021/07/13 01:35:15;;;;;;;;;26.75;21.25;;;;;18.79;70.84;100656.28;5037816;28;45646;-63
2021/07/13 01:37:44;;;;;;;;;23.50;20.00;;;;;18.84;70.80;100645.47;5041746;28;45433;-62
2021/07/13 01:40:10;;;;;;;;;23.50;22.00;;;;;18.82;70.74;100658.75;5031220;28;45439;-63
2021/07/13 01:42:35;;;;;;;;;27.00;20.50;;;;;18.80;70.50;100670.28;5049953;28;45316;-62
2021/07/13 01:45:01;;;;;;;;;25.50;22.50;;;;;18.81;70.35;100678.06;5037932;28;45436;-62
2021/07/13 01:47:26;;;;;;;;;18.25;17.50;;;;;18.82;70.72;100679.81;5013362;28;45351;-62
2021/07/13 01:49:52;;;;;;;;;21.50;19.75;;;;;18.77;70.73;100683.63;5035610;28;45374;-62
2021/07/13 01:52:17;;;;;;;;;23.50;23.00;;;;;18.76;70.80;100695.97;5050309;28;45337;-62
2021/07/13 01:54:43;;;;;;;;;24.50;22.00;;;;;18.74;71.02;100704.91;5037521;28;55630;-62
2021/07/13 01:57:08;;;;;;;;;23.25;19.00;;;;;18.75;70.99;100703.94;5028908;28;65904;-63
2021/07/13 01:59:34;;;;;;;;;19.00;16.25;;;;;18.75;70.77;100696.91;5055699;28;45494;-63
2021/07/13 02:02:00;;;;;;;;;23.75;16.25;;;;;18.79;70.86;100679.13;5038044;28;45182;-63
2021/07/13 02:04:29;;;;;;;;;21.50;20.00;;;;;18.81;70.39;100666.69;5035313;28;46337;-62
2021/07/13 02:06:54;;;;;;;;;22.25;18.00;;;;;18.83;70.70;100668.31;5059353;28;45300;-63
2021/07/13 02:09:20;;;;;;;;;24.25;21.25;;;;;18.87;70.62;100679.50;5041438;28;45851;-63
2021/07/13 02:11:45;;;;;;;;;24.75;21.75;;;;;18.88;70.59;100677.72;5053693;28;66986;-63
2021/07/13 02:14:11;;;;;;;;;24.25;18.75;;;;;18.85;70.08;100689.28;5058944;28;45283;-63
2021/07/13 02:16:36;;;;;;;;;20.00;15.75;;;;;18.91;70.17;100695.94;5022305;28;45409;-63
2021/07/13 02:19:02;;;;;;;;;19.50;16.75;;;;;18.94;70.06;100685.22;5057049;28;58846;-63
2021/07/13 02:21:28;;;;;;;;;17.75;16.00;;;;;18.96;69.95;100692.06;5034253;28;45705;-63
2021/07/13 02:23:53;;;;;;;;;16.50;16.50;;;;;18.99;70.08;100688.41;5044510;28;46037;-62
2021/07/13 02:26:28;;;;;;;;;17.25;14.25;;;;;18.92;70.27;100684.47;5061406;28;65034;-62
2021/07/13 02:28:59;;;;;;;;;8.00;6.75;;;;;18.87;70.02;100666.34;5045225;28;45341;-62
2021/07/13 02:31:27;;;;;;;;;17.50;15.25;;;;;18.86;69.95;100658.53;5061207;28;47443;-62
2021/07/13 02:34:08;;;;;;;;;16.75;15.00;;;;;18.88;69.44;100664.56;5024306;28;45428;-62
2021/07/13 02:36:34;;;;;;;;;20.25;15.75;;;;;18.90;69.51;100674.03;5056126;28;45712;-62
2021/07/13 02:39:00;;;;;;;;;17.25;16.00;;;;;18.85;69.82;100678.75;5060221;28;45368;-62
2021/07/13 02:41:26;;;;;;;;;15.00;14.00;;;;;18.81;69.85;100679.88;5037764;28;46120;-62
2021/07/13 02:43:52;;;;;;;;;18.50;13.50;;;;;18.78;70.02;100691.44;5044340;28;47094;-63
2021/07/13 02:46:17;;;;;;;;;21.00;17.50;;;;;18.75;69.69;100686.38;5061898;28;45351;-66
2021/07/13 02:48:43;;;;;;;;;14.50;14.00;;;;;18.73;70.09;100683.00;5040397;28;57594;-65
2021/07/13 02:51:09;;;;;;;;;17.50;16.00;;;;;18.73;70.16;100679.50;5017477;28;68292;-65
2021/07/13 02:53:35;;;;;;;;;17.50;16.25;;;;;18.78;70.13;100682.69;5044110;28;45260;-64
2021/07/13 02:56:00;;;;;;;;;20.75;18.50;;;;;18.78;70.39;100674.81;5061700;28;45158;-64
2021/07/13 02:58:26;;;;;;;;;18.25;15.00;;;;;18.78;70.48;100674.81;5040001;28;61855;-62
2021/07/13 03:00:51;;;;;;;;;19.75;16.00;;;;;18.74;70.67;100673.31;5040894;28;65610;-59
2021/07/13 03:03:16;;;;;;;;;17.25;16.00;;;;;18.71;70.33;100690.13;5030514;28;60073;-59
2021/07/13 03:05:42;;;;;;;;;20.50;17.25;;;;;18.72;70.43;100690.97;5039263;28;66806;-61
2021/07/13 03:08:08;;;;;;;;;17.75;16.50;;;;;18.74;70.48;100684.69;5039825;28;62887;-61
2021/07/13 03:10:34;;;;;;;;;12.50;10.25;;;;;18.71;70.94;100682.25;5017478;28;45602;-60
2021/07/13 03:12:59;;;;;;;;;19.25;18.25;;;;;18.67;71.25;100678.13;5038237;28;46031;-60
2021/07/13 03:15:29;;;;;;;;;20.25;18.25;;;;;18.68;70.73;100679.81;5053815;28;64197;-60
2021/07/13 03:17:55;;;;;;;;;23.00;19.25;;;;;18.70;71.04;100693.72;5061774;28;45205;-60
2021/07/13 03:20:24;;;;;;;;;23.25;18.50;;;;;18.71;70.71;100695.41;5041918;28;47912;-61
2021/07/13 03:22:50;;;;;;;;;21.00;17.75;;;;;18.75;70.67;100696.06;5060273;28;46774;-60
2021/07/13 03:25:17;;;;;;;;;17.75;16.50;;;;;18.75;70.88;100694.25;5042718;28;45345;-61
2021/07/13 03:27:42;;;;;;;;;19.00;18.25;;;;;18.76;70.93;100685.44;5043391;28;45420;-61
2021/07/13 03:30:08;;;;;;;;;18.25;15.75;;;;;18.71;70.95;100682.25;5040836;28;45301;-61
2021/07/13 03:32:34;;;;;;;;;15.75;14.00;;;;;18.69;70.78;100675.38;5061424;28;46485;-62
2021/07/13 03:34:59;;;;;;;;;21.00;18.00;;;;;18.70;70.86;100670.03;5060168;28;45358;-61
2021/07/13 03:37:25;;;;;;;;;17.00;16.25;;;;;18.74;70.80;100653.09;5059888;28;55534;-61
2021/07/13 03:39:50;;;;;;;;;17.50;17.25;;;;;18.73;70.85;100658.44;5050728;28;60464;-61
2021/07/13 03:42:17;;;;;;;;;17.75;16.00;;;;;18.68;71.55;100666.66;5060205;28;64200;-61
2021/07/13 03:44:42;;;;;;;;;18.50;15.25;;;;;18.67;71.23;100667.59;5040873;28;45210;-61
2021/07/13 03:47:12;;;;;;;;;17.75;15.75;;;;;18.71;71.10;100666.44;5059225;28;64605;-61
2021/07/13 03:49:37;;;;;;;;;19.50;16.25;;;;;18.71;71.25;100662.97;5060940;28;45293;-61
2021/07/13 03:52:03;;;;;;;;;22.00;15.50;;;;;18.71;70.96;100668.22;5058985;28;67283;-62
2021/07/13 03:54:28;;;;;;;;;17.50;15.50;;;;;18.73;70.80;100664.56;5060988;28;45365;-61
2021/07/13 03:56:54;;;;;;;;;19.25;17.00;;;;;18.77;71.15;100673.94;5062822;28;52327;-61
2021/07/13 03:59:19;;;;;;;;;21.25;17.50;;;;;18.79;71.32;100676.50;5049172;28;52932;-62
2021/07/13 04:01:44;;;;;;;;;20.00;19.00;;;;;18.75;71.21;100678.47;5054396;28;64903;-62
2021/07/13 04:04:10;;;;;;;;;18.50;17.25;;;;;18.73;70.63;100668.97;5050790;28;65133;-62
2021/07/13 04:06:35;;;;;;;;;22.75;18.00;;;;;18.66;71.00;100668.53;5047920;28;45426;-62
2021/07/13 04:09:02;;;;;;;;;20.00;19.00;;;;;18.66;71.14;100668.53;5061059;28;45504;-61
2021/07/13 04:11:27;;;;;;;;;21.25;16.50;;;;;18.64;71.43;100667.78;5057490;28;45454;-61
2021/07/13 04:13:53;;;;;;;;;20.75;19.00;;;;;18.64;71.34;100666.94;5060704;28;45246;-61
2021/07/13 04:16:18;;;;;;;;;19.75;18.25;;;;;18.61;71.82;100667.91;5060212;28;63910;-61
2021/07/13 04:18:43;;;;;;;;;27.50;22.75;;;;;18.61;71.58;100667.06;5059609;28;67132;-59
2021/07/13 04:21:09;;;;;;;;;21.50;20.50;;;;;18.57;71.74;100668.19;5060671;28;50964;-59
2021/07/13 04:23:34;;;;;;;;;21.75;20.00;;;;;18.51;72.11;100675.53;5059876;28;64786;-59
2021/07/13 04:26:00;;;;;;;;;23.75;22.25;;;;;18.50;72.19;100678.28;5039509;28;45369;-58
2021/07/13 04:28:30;;;;;;;;;26.75;20.50;;;;;18.49;71.84;100673.94;5055536;28;48406;-59
2021/07/13 04:30:56;;;;;;;;;21.75;18.75;;;;;18.49;72.32;100668.69;5060559;28;47052;-60
2021/07/13 04:33:22;;;;;;;;;22.00;19.50;;;;;18.46;72.29;100668.88;5060310;28;45721;-60
2021/07/13 04:35:47;;;;;;;;;22.25;20.25;;;;;18.47;72.15;100667.94;5059869;28;62078;-60
2021/07/13 04:38:12;;;;;;;;;23.50;22.00;;;;;18.46;72.12;100669.72;5060784;28;68882;-59
2021/07/13 04:40:38;;;;;;;;;23.50;22.00;;;;;18.51;72.08;100677.34;5051358;28;69399;-60
2021/07/13 04:43:03;;;;;;;;;24.25;21.75;;;;;18.52;71.79;100673.75;5059777;28;45277;-60
2021/07/13 04:45:29;;;;;;;;;25.00;23.50;;;;;18.63;71.69;100681.03;5059600;28;57741;-62
2021/07/13 04:47:54;;;;;;;;;23.50;20.25;;;;;18.69;71.67;100680.66;5058551;28;65452;-61
2021/07/13 04:50:19;;;;;;;;;26.00;23.25;;;;;18.68;71.39;100678.97;5058349;28;66532;-61
2021/07/13 04:52:45;;;;;;;;;22.75;21.75;;;;;18.70;71.48;100680.56;5057304;28;65799;-60
2021/07/13 04:55:12;;;;;;;;;24.50;21.00;;;;;18.69;71.54;100668.34;5057926;28;59526;-60
2021/07/13 04:57:38;;;;;;;;;21.00;19.75;;;;;18.72;71.80;100669.94;5058445;28;45589;-60
2021/07/13 05:00:05;;;;;;;;;22.50;22.00;;;;;18.72;71.48;100673.41;5046967;28;45383;-61
2021/07/13 05:02:30;;;;;;;;;20.75;18.75;;;;;18.73;71.25;100672.47;5047225;28;45342;-61
2021/07/13 05:04:56;;;;;;;;;27.00;25.50;;;;;18.79;71.17;100679.97;5054801;28;61252;-61
2021/07/13 05:07:23;;;;;;;;;22.25;20.25;;;;;18.86;70.82;100674.34;5058809;28;62058;-60
2021/07/13 05:09:48;;;;;;;;;22.75;21.75;;;;;18.82;71.04;100663.13;5059684;28;46975;-61
2021/07/13 05:12:14;;;;;;;;;26.25;24.50;;;;;18.85;71.08;100673.50;5039892;28;45662;-60
2021/07/13 05:14:40;;;;;;;;;23.25;22.00;;;;;18.89;70.72;100679.41;5059749;28;45400;-60
2021/07/13 05:17:05;;;;;;;;;23.75;21.00;;;;;18.89;71.06;100684.66;5059610;28;45441;-60
2021/07/13 05:19:32;;;;;;;;;31.00;24.75;;;;;18.87;71.12;100687.41;5059624;28;45405;-60
2021/07/13 05:22:01;;;;;;;;;23.00;21.50;;;;;18.89;71.17;100680.25;5059614;28;45372;-60
2021/07/13 05:24:27;;;;;;;;;28.75;23.75;;;;;18.91;70.77;100681.00;5059683;28;45166;-60
2021/07/13 05:26:52;;;;;;;;;31.75;25.75;;;;;18.89;70.74;100690.78;5021542;28;59024;-61
2021/07/13 05:29:18;;;;;;;;;22.50;21.00;;;;;18.85;71.09;100697.19;5059508;28;46523;-61
2021/07/13 05:31:44;;;;;;;;;26.75;22.50;;;;;18.80;71.50;100696.59;5058167;28;67797;-59
2021/07/13 05:34:10;;;;;;;;;26.75;24.75;;;;;18.78;71.10;100701.97;5060872;28;45316;-60
2021/07/13 05:36:35;;;;;;;;;26.25;21.75;;;;;18.79;71.35;100710.72;5047326;28;45455;-59
2021/07/13 05:39:02;;;;;;;;;26.00;23.50;;;;;18.79;71.41;100708.94;5055887;28;56802;-62
2021/07/13 05:41:27;;;;;;;;;23.50;21.25;;;;;18.83;71.48;100706.97;5053253;28;45332;-62
2021/07/13 05:43:55;;;;;;;;;30.00;25.25;;;;;18.85;71.39;100713.00;5058986;28;45341;-62
2021/07/13 05:46:20;;;;;;;;;28.00;23.00;;;;;18.82;71.22;100718.41;5058725;28;45341;-62
2021/07/13 05:48:46;;;;;;;;;26.75;24.00;;;;;18.83;71.28;100714.88;5058948;28;46088;-60
2021/07/13 05:51:11;;;;;;;;;42.75;34.50;;;;;18.87;71.59;100719.00;5059198;28;46238;-60
2021/07/13 05:53:37;;;;;;;;;26.50;25.00;;;;;18.90;71.16;100713.53;5062924;28;45153;-61
2021/07/13 05:56:02;;;;;;;;;27.75;20.75;;;;;18.93;71.09;100720.41;5062365;28;45246;-60
2021/07/13 05:58:28;;;;;;;;;33.25;29.25;;;;;18.96;70.92;100720.19;5053495;28;46955;-61
2021/07/13 06:00:54;;;;;;;;;25.75;21.50;;;;;19.00;71.02;100724.34;5061811;28;45474;-61
2021/07/13 06:03:19;;;;;;;;;28.00;20.50;;;;;19.04;70.90;100707.41;5050136;28;49003;-61
2021/07/13 06:05:44;;;;;;;;;30.25;26.75;;;;;19.05;70.50;100712.59;5062129;28;45353;-59
2021/07/13 06:08:10;;;;;;;;;26.50;25.00;;;;;19.09;70.79;100711.44;5030425;28;64413;-60
2021/07/13 06:10:35;;;;;;;;;24.75;19.00;;;;;19.09;70.87;100708.81;5048571;28;63862;-59
2021/07/13 06:13:01;;;;;;;;;26.50;23.00;;;;;19.05;70.53;100703.84;5061834;28;45311;-60
2021/07/13 06:15:26;;;;;;;;;29.75;23.25;;;;;19.04;70.62;100703.00;5062436;28;47813;-60
2021/07/13 06:17:51;;;;;;;;;24.00;21.25;;;;;19.04;70.80;100702.16;5062255;28;45305;-60
2021/07/13 06:20:17;;;;;;;;;25.25;23.25;;;;;19.08;70.88;100704.47;5061531;28;62909;-60
2021/07/13 06:22:42;;;;;;;;;25.00;23.50;;;;;19.11;70.92;100696.38;5060497;28;59068;-60
2021/07/13 06:25:08;;;;;;;;;24.25;22.75;;;;;19.15;71.10;100700.50;5062294;28;45431;-60
2021/07/13 06:27:34;;;;;;;;;30.50;26.50;;;;;19.19;70.89;100702.94;5061937;28;45582;-60
2021/07/13 06:29:59;;;;;;;;;28.75;24.25;;;;;19.22;70.85;100713.28;5062085;28;45202;-60
2021/07/13 06:32:25;;;;;;;;;23.75;22.00;;;;;19.24;70.63;100709.63;5040010;28;52514;-61
2021/07/13 06:34:50;;;;;;;;;32.50;25.50;;;;;19.25;70.27;100708.69;5057182;28;45311;-61
2021/07/13 06:37:16;;;;;;;;;25.00;22.25;;;;;19.29;70.77;100709.31;5061271;28;72769;-60
2021/07/13 06:39:41;;;;;;;;;28.25;23.25;;;;;19.35;70.24;100715.03;5040918;28;45468;-60
2021/07/13 06:42:07;;;;;;;;;26.50;23.50;;;;;19.38;70.58;100706.09;5061010;28;61500;-60
2021/07/13 06:44:32;;;;;;;;;29.50;27.25;;;;;19.36;70.16;100707.97;5061792;28;45263;-60
2021/07/13 06:46:57;;;;;;;;;29.25;24.25;;;;;19.39;70.51;100708.63;5060257;28;69768;-60
2021/07/13 06:49:23;;;;;;;;;23.00;20.75;;;;;19.39;70.50;100698.09;5047995;28;60224;-60
2021/07/13 06:51:48;;;;;;;;;33.50;27.00;;;;;19.48;70.49;100698.44;5060890;28;45348;-59
2021/07/13 06:54:13;;;;;;;;;31.75;26.50;;;;;19.52;70.36;100699.94;5060009;28;64078;-59
2021/07/13 06:56:39;;;;;;;;;31.50;23.50;;;;;19.57;70.16;100696.06;5060392;28;51219;-59
2021/07/13 06:59:04;;;;;;;;;31.00;25.50;;;;;19.67;69.79;100691.91;5048139;28;45352;-60
2021/07/13 07:01:30;;;;;;;;;29.00;25.75;;;;;19.72;69.69;100687.16;5054056;28;63300;-59
2021/07/13 07:03:55;;;;;;;;;27.00;22.00;;;;;19.76;68.99;100693.06;5050446;28;58044;-59
2021/07/13 07:06:20;;;;;;;;;34.00;26.25;;;;;19.71;69.03;100690.75;5040452;28;46165;-59
2021/07/13 07:08:46;;;;;;;;;26.50;24.50;;;;;19.78;69.15;100695.59;5059631;28;67429;-59
2021/07/13 07:11:11;;;;;;;;;25.00;23.00;;;;;19.87;69.06;100701.13;5057031;28;64672;-59
2021/07/13 07:13:37;;;;;;;;;29.75;26.75;;;;;19.93;68.58;100692.78;5060235;28;47785;-59
2021/07/13 07:16:02;;;;;;;;;35.50;28.75;;;;;20.04;68.66;100690.28;5052285;28;46833;-59
2021/07/13 07:18:28;;;;;;;;;34.00;22.75;;;;;20.07;67.95;100678.69;5060201;28;45316;-59
2021/07/13 07:20:53;;;;;;;;;32.50;23.50;;;;;20.10;67.84;100680.25;5059366;28;61018;-59
2021/07/13 07:23:19;;;;;;;;;25.50;23.00;;;;;20.13;68.08;100672.97;5060206;28;45430;-58
2021/07/13 07:25:44;;;;;;;;;33.00;30.00;;;;;20.17;68.39;100669.16;5047501;28;46365;-59
2021/07/13 07:28:11;;;;;;;;;35.00;29.00;;;;;20.20;67.83;100668.97;5058957;28;66928;-58
2021/07/13 07:30:36;;;;;;;;;30.00;25.25;;;;;20.14;68.06;100677.31;5058418;28;45475;-58
2021/07/13 07:33:02;;;;;;;;;27.50;24.50;;;;;20.12;68.28;100673.94;5059167;28;60809;-59
2021/07/13 07:35:28;;;;;;;;;31.75;25.50;;;;;20.12;68.14;100678.34;5041971;28;47019;-59
2021/07/13 07:37:54;;;;;;;;;31.25;28.25;;;;;20.14;68.41;100679.94;5058411;28;45326;-62
2021/07/13 07:40:20;;;;;;;;;33.00;25.25;;;;;20.19;68.10;100675.19;5052748;28;53729;-61
2021/07/13 07:42:47;;;;;;;;;31.75;24.75;;;;;20.26;67.84;100684.41;5059250;28;45682;-61
2021/07/13 07:45:13;;;;;;;;;32.75;25.00;;;;;20.24;68.09;100696.84;5059671;28;46486;-60
2021/07/13 07:47:38;;;;;;;;;31.75;28.25;;;;;20.24;68.21;100706.56;5018439;28;1166480;-59
2021/07/13 07:50:04;;;;;;;;;22.75;18.50;;;;;20.21;68.13;100706.75;5060234;28;55431;-58
2021/07/13 07:52:30;;;;;;;;;25.50;22.75;;;;;20.13;68.58;100694.09;5055241;28;45319;-58
2021/07/13 07:54:57;;;;;;;;;29.25;23.75;;;;;20.08;68.18;100706.75;5050748;28;45344;-58
2021/07/13 07:57:22;;;;;;;;;27.50;22.50;;;;;20.02;68.55;100712.41;5061273;28;45235;-58
2021/07/13 07:59:48;;;;;;;;;31.50;28.00;;;;;19.98;68.68;100710.94;5048016;28;58765;-57
2021/07/13 08:02:14;;;;;;;;;32.00;25.25;;;;;20.00;68.74;100714.31;5049559;28;64389;-57
2021/07/13 08:04:40;;;;;;;;;26.75;20.25;;;;;20.01;68.62;100713.38;5055192;28;46633;-58
2021/07/13 08:07:05;;;;;;;;;27.50;22.75;;;;;19.99;69.05;100723.19;5052590;28;45523;-57
2021/07/13 08:09:30;;;;;;;;;23.25;20.50;;;;;19.98;68.48;100718.84;5058330;28;45736;-58
2021/07/13 08:11:56;;;;;;;;;27.50;21.75;;;;;20.00;69.00;100724.88;5051119;28;66440;-61
2021/07/13 08:14:21;;;;;;;;;28.25;23.50;;;;;20.01;69.07;100710.72;5058812;28;63274;-64
2021/07/13 08:16:49;;;;;;;;;30.00;24.25;;;;;20.11;68.56;100717.09;5060412;28;54229;-62
2021/07/13 08:19:14;;;;;;;;;28.50;22.75;;;;;20.21;68.33;100717.31;5057011;28;45476;-63
2021/07/13 08:21:40;;;;;;;;;27.25;23.75;;;;;20.31;68.12;100723.66;5051484;28;60611;-62
2021/07/13 08:24:06;;;;;;;;;20.75;19.50;;;;;20.45;67.90;100720.13;5041345;28;69863;-61
2021/07/13 08:26:31;;;;;;;;;27.00;23.50;;;;;20.53;67.42;100728.34;5060317;28;45446;-62
2021/07/13 08:28:56;;;;;;;;;25.25;19.50;;;;;20.54;67.39;100724.75;5059792;28;61654;-63
2021/07/13 08:31:22;;;;;;;;;20.75;18.75;;;;;20.52;67.43;100735.41;5059841;28;67365;-62
2021/07/13 08:33:47;;;;;;;;;24.00;17.50;;;;;20.46;67.32;100727.09;5038146;28;58871;-62
2021/07/13 08:36:13;;;;;;;;;20.75;18.50;;;;;20.43;67.49;100732.56;5051502;28;45422;-61
2021/07/13 08:38:38;;;;;;;;;25.00;16.75;;;;;20.38;67.77;100732.00;5059786;28;45475;-63
2021/07/13 08:41:03;;;;;;;;;20.00;17.50;;;;;20.39;67.38;100723.13;5051715;28;45290;-60
2021/07/13 08:43:29;;;;;;;;;22.00;17.25;;;;;20.36;67.79;100719.75;5059414;28;45438;-62
2021/07/13 08:45:55;;;;;;;;;21.25;17.00;;;;;20.42;67.74;100720.31;5058881;28;45448;-61
2021/07/13 08:48:23;;;;;;;;;18.50;17.50;;;;;20.45;67.54;100726.25;5059912;28;45520;-66
2021/07/13 08:50:56;;;;;;;;;23.50;18.25;;;;;20.41;67.66;100732.66;5038843;28;45348;-66
2021/07/13 08:53:21;;;;;;;;;18.00;16.75;;;;;20.39;67.89;100725.75;5054188;28;46414;-61
2021/07/13 08:55:47;;;;;;;;;22.50;16.25;;;;;20.35;67.44;100727.78;5046987;28;45266;-66
2021/07/13 08:58:14;;;;;;;;;21.25;18.50;;;;;20.30;67.86;100717.53;5048100;28;45577;-59
2021/07/13 09:00:39;;;;;;;;;17.25;13.25;;;;;20.25;67.80;100721.44;5053891;28;45574;-60
2021/07/13 09:03:16;;;;;;;;;16.75;14.75;;;;;20.26;68.05;100723.97;5046367;28;46119;-61
2021/07/13 09:05:51;;;;;;;;;23.00;20.25;;;;;20.25;68.39;100719.66;5056238;28;45613;-60
2021/07/13 09:08:23;;;;;;;;;23.75;18.50;;;;;20.31;68.42;100734.22;5057209;28;45392;-59
2021/07/13 09:10:59;;;;;;;;;21.00;20.25;;;;;20.35;68.00;100736.53;5056956;28;45305;-60
2021/07/13 09:13:25;;;;;;;;;23.00;17.00;;;;;20.35;68.51;100731.25;5060087;28;46346;-61
2021/07/13 09:15:54;;;;;;;;;23.50;18.50;;;;;20.36;68.62;100737.38;5059686;28;45274;-60
2021/07/13 09:18:30;;;;;;;;;18.50;16.75;;;;;20.42;68.67;100736.97;5059793;28;45327;-61
2021/07/13 09:21:15;;;;;;;;;21.00;19.50;;;;;20.50;68.17;100737.31;5059452;28;45264;-61
2021/07/13 09:24:02;;;;;;;;;20.00;19.75;;;;;20.52;68.84;100753.06;5059497;28;45383;-59
2021/07/13 09:26:55;;;;;;;;;25.00;19.75;;;;;20.47;68.88;100745.47;5049217;28;45702;-61
2021/07/13 09:29:32;;;;;;;;;20.00;18.00;;;;;20.44;68.88;100747.47;5044848;28;45729;-58
2021/07/13 09:32:16;;;;;;;;;20.75;19.25;;;;;20.38;69.19;100747.84;5059589;28;45262;-58
2021/07/13 09:34:48;;;;;;;;;21.75;19.00;;;;;20.35;69.24;100756.81;5059128;28;46338;-61
2021/07/13 09:37:20;;;;;;;;;19.75;18.50;;;;;20.22;69.35;100751.53;5056466;28;45638;-60
2021/07/13 09:40:09;;;;;;;;;24.50;20.75;;;;;20.14;70.24;100756.47;5049048;28;45275;-59
2021/07/13 09:42:36;;;;;;;;;20.75;19.50;;;;;20.07;71.38;100755.19;5057633;28;45472;-59
2021/07/13 09:45:17;;;;;;;;;28.25;22.00;;;;;20.03;74.52;100751.91;5056334;28;45418;-59
2021/07/13 09:47:43;;;;;;;;;27.50;24.00;;;;;19.84;76.52;100756.72;5056796;28;45655;-58
2021/07/13 09:50:09;;;;;;;;;25.25;24.25;;;;;19.77;76.47;100759.84;5057643;28;45217;-58
2021/07/13 09:52:35;;;;;;;;;29.00;24.25;;;;;19.82;76.54;100760.38;5037776;28;45513;-58
2021/07/13 09:55:02;;;;;;;;;32.75;24.00;;;;;19.89;76.11;100759.88;5057038;28;60483;-58
2021/07/13 09:57:29;;;;;;;;;27.75;18.25;;;;;20.05;75.63;100760.56;5055525;28;45842;-57
2021/07/13 09:59:57;;;;;;;;;21.00;20.25;;;;;20.25;75.43;100761.88;5056703;28;45495;-57
2021/07/13 10:02:26;;;;;;;;;29.50;27.75;;;;;20.43;73.97;100774.81;5056083;28;45503;-59
2021/07/13 10:04:52;;;;;;;;;22.75;20.00;;;;;20.48;73.09;100775.34;5037521;28;47629;-58
2021/07/13 10:07:19;;;;;;;;;24.50;20.00;;;;;20.50;73.50;100771.63;5048458;28;45297;-58
2021/07/13 10:09:49;;;;;;;;;22.00;18.00;;;;;20.50;72.60;100773.44;5055158;28;45313;-58
2021/07/13 10:12:16;;;;;;;;;20.50;18.75;;;;;20.56;72.84;100773.00;5055220;28;45644;-58
2021/07/13 10:14:45;;;;;;;;;23.50;17.75;;;;;20.63;72.92;100766.38;5048451;28;46392;-58
2021/07/13 10:17:11;;;;;;;;;21.50;18.50;;;;;20.73;72.25;100764.78;5036141;28;45301;-63
2021/07/13 10:19:39;;;;;;;;;28.50;24.50;;;;;20.80;72.90;100773.09;5046474;28;45186;-60
2021/07/13 10:22:05;;;;;;;;;22.50;17.50;;;;;20.86;72.88;100767.41;5020366;28;45686;-58
2021/07/13 10:24:30;;;;;;;;;19.25;17.25;;;;;20.89;72.05;100768.03;5029861;28;46506;-66
2021/07/13 10:26:56;;;;;;;;;18.00;15.25;;;;;20.89;72.18;100778.59;5045286;28;64316;-61
2021/07/13 10:29:40;;;;;;;;;19.50;18.75;;;;;20.78;71.96;100775.84;5043492;28;46546;-62
2021/07/13 10:32:18;;;;;;;;;19.25;16.50;;;;;20.74;72.68;100774.38;5054161;28;45468;-62
2021/07/13 10:34:47;;;;;;;;;22.75;19.00;;;;;20.78;72.35;100775.84;5058128;28;45663;-62
2021/07/13 10:37:29;;;;;;;;;21.00;17.75;;;;;20.76;72.80;100769.84;5058420;28;45386;-61
2021/07/13 10:39:56;;;;;;;;;22.75;18.50;;;;;20.79;73.13;100776.69;5055093;28;45306;-61
2021/07/13 10:42:39;;;;;;;;;26.25;22.00;;;;;20.84;73.42;100777.25;5061263;28;45462;-61
2021/07/13 10:45:21;;;;;;;;;20.75;15.50;;;;;20.83;73.07;100776.41;5061320;28;46413;-60
2021/07/13 10:48:06;;;;;;;;;20.25;20.25;;;;;20.78;73.77;100786.41;5061004;28;45301;-61
2021/07/13 10:50:37;;;;;;;;;16.50;14.25;;;;;20.66;74.64;100782.00;5053442;28;45354;-58
2021/07/13 10:53:20;;;;;;;;;20.50;18.75;;;;;20.48;76.91;100776.19;5058655;28;45447;-70
2021/07/13 10:56:08;;;;;;;;;21.75;18.00;;;;;20.19;80.77;100766.69;5061430;28;46413;-69
2021/07/13 10:58:38;;;;;;;;;23.75;19.75;;;;;20.09;81.71;100763.84;5053079;28;45191;-65
2021/07/13 11:01:10;;;;;;;;;27.00;24.50;;;;;20.05;79.71;100760.56;5056135;28;45344;-61
2021/07/13 11:03:36;;;;;;;;;31.25;23.75;;;;;20.03;79.29;100759.00;5050892;28;45470;-62
2021/07/13 11:06:02;;;;;;;;;32.50;25.75;;;;;20.03;77.93;100761.63;5058055;28;45373;-63
2021/07/13 11:08:58;;;;;;;;;30.00;24.75;;;;;20.04;77.77;100765.94;5061454;28;45456;-61
2021/07/13 11:11:29;;;;;;;;;22.75;20.50;;;;;20.03;77.37;100772.19;5057397;28;45257;-61